sensor_id;sensor_type;location;lat;lon;timestamp;temperature;humidity
21772;DHT22;11047;47.904;8.110;2022-09-19T00:01:31;8.60;99.90
21772;DHT22;11047;47.904;8.110;2022-09-19T00:04:00;8.80;99.90
21772;DHT22;11047;47.904;8.110;2022-09-19T00:06:29;8.50;99.90
21772;DHT22;11047;47.904;8.110;2022-09-19T00:08:58;8.50;99.90
21772;DHT22;11047;47.904;8.110;2022-09-19T00:11:26;8.50;99.90
21772;DHT22;11047;47.904;8.110;2022-09-19T00:13:54;8.50;99.90
21772;DHT22;11047;47.904;8.110;2022-09-19T00:16:25;8.40;99.90
21772;DHT22;11047;47.904;8.110;2022-09-19T00:18:54;8.50;99.90
21772;DHT22;11047;47.904;8.110;2022-09-19T00:21:23;8.30;99.90
21772;DHT22;11047;47.904;8.110;2022-09-19T00:23:50;8.40;99.90
21772;DHT22;11047;47.904;8.110;2022-09-19T00:26:37;8.40;99.90
21772;DHT22;11047;47.904;8.110;2022-09-19T00:29:05;8.40;99.90
21772;DHT22;11047;47.904;8.110;2022-09-19T00:31:32;8.40;99.90
21772;DHT22;11047;47.904;8.110;2022-09-19T00:33:59;8.40;99.90
21772;DHT22;11047;47.904;8.110;2022-09-19T00:36:30;8.20;99.90
21772;DHT22;11047;47.904;8.110;2022-09-19T00:38:57;8.30;99.90
21772;DHT22;11047;47.904;8.110;2022-09-19T00:41:25;8.20;99.90
21772;DHT22;11047;47.904;8.110;2022-09-19T00:43:54;8.20;99.90
21772;DHT22;11047;47.904;8.110;2022-09-19T00:46:23;8.20;99.90
21772;DHT22;11047;47.904;8.110;2022-09-19T00:48:53;8.20;99.90
21772;DHT22;11047;47.904;8.110;2022-09-19T00:51:26;8.30;99.90
21772;DHT22;11047;47.904;8.110;2022-09-19T00:53:58;8.40;99.90
21772;DHT22;11047;47.904;8.110;2022-09-19T00:56:27;8.30;99.90
21772;DHT22;11047;47.904;8.110;2022-09-19T00:58:57;8.30;99.90
21772;DHT22;11047;47.904;8.110;2022-09-19T01:01:25;8.50;99.90
21772;DHT22;11047;47.904;8.110;2022-09-19T01:03:52;8.40;99.90
21772;DHT22;11047;47.904;8.110;2022-09-19T01:06:38;8.20;99.90
21772;DHT22;11047;47.904;8.110;2022-09-19T01:09:21;8.20;99.90
21772;DHT22;11047;47.904;8.110;2022-09-19T01:12:12;8.30;99.90
21772;DHT22;11047;47.904;8.110;2022-09-19T01:15:03;8.20;99.90
21772;DHT22;11047;47.904;8.110;2022-09-19T01:17:40;8.20;99.90
21772;DHT22;11047;47.904;8.110;2022-09-19T01:20:45;8.10;99.90
21772;DHT22;11047;47.904;8.110;2022-09-19T01:23:34;8.00;99.90
21772;DHT22;11047;47.904;8.110;2022-09-19T01:26:14;7.90;99.90
21772;DHT22;11047;47.904;8.110;2022-09-19T01:28:47;7.90;99.90
21772;DHT22;11047;47.904;8.110;2022-09-19T01:31:20;7.80;99.90
21772;DHT22;11047;47.904;8.110;2022-09-19T01:33:52;7.80;99.90
21772;DHT22;11047;47.904;8.110;2022-09-19T01:36:28;7.80;99.90
21772;DHT22;11047;47.904;8.110;2022-09-19T01:38:58;7.80;99.90
21772;DHT22;11047;47.904;8.110;2022-09-19T01:41:27;7.80;99.90
21772;DHT22;11047;47.904;8.110;2022-09-19T01:43:58;7.80;99.90
21772;DHT22;11047;47.904;8.110;2022-09-19T01:46:51;7.80;99.90
21772;DHT22;11047;47.904;8.110;2022-09-19T01:49:28;8.00;99.90
21772;DHT22;11047;47.904;8.110;2022-09-19T01:52:02;8.60;99.90
21772;DHT22;11047;47.904;8.110;2022-09-19T01:54:41;7.70;99.90
21772;DHT22;11047;47.904;8.110;2022-09-19T01:57:19;8.00;99.90
21772;DHT22;11047;47.904;8.110;2022-09-19T02:00:03;7.70;99.90
21772;DHT22;11047;47.904;8.110;2022-09-19T02:02:38;7.70;99.90
21772;DHT22;11047;47.904;8.110;2022-09-19T02:05:12;7.90;99.90
21772;DHT22;11047;47.904;8.110;2022-09-19T02:07:44;7.60;99.90
21772;DHT22;11047;47.904;8.110;2022-09-19T02:10:20;7.50;99.90
21772;DHT22;11047;47.904;8.110;2022-09-19T02:12:50;7.50;99.90
21772;DHT22;11047;47.904;8.110;2022-09-19T02:15:23;7.50;99.90
21772;DHT22;11047;47.904;8.110;2022-09-19T02:17:56;8.30;99.90
21772;DHT22;11047;47.904;8.110;2022-09-19T02:20:27;7.50;99.90
21772;DHT22;11047;47.904;8.110;2022-09-19T02:22:59;7.40;99.90
21772;DHT22;11047;47.904;8.110;2022-09-19T02:25:29;7.30;99.90
21772;DHT22;11047;47.904;8.110;2022-09-19T02:28:01;7.40;99.90
21772;DHT22;11047;47.904;8.110;2022-09-19T02:30:31;7.50;99.90
21772;DHT22;11047;47.904;8.110;2022-09-19T02:32:58;7.40;99.90
21772;DHT22;11047;47.904;8.110;2022-09-19T02:35:27;7.40;99.90
21772;DHT22;11047;47.904;8.110;2022-09-19T02:38:07;7.40;99.90
21772;DHT22;11047;47.904;8.110;2022-09-19T02:40:40;7.40;99.90
21772;DHT22;11047;47.904;8.110;2022-09-19T02:43:16;7.50;99.90
21772;DHT22;11047;47.904;8.110;2022-09-19T02:45:48;7.30;99.90
21772;DHT22;11047;47.904;8.110;2022-09-19T02:48:21;7.50;99.90
21772;DHT22;11047;47.904;8.110;2022-09-19T02:50:56;7.90;99.90
21772;DHT22;11047;47.904;8.110;2022-09-19T02:53:27;7.40;99.90
21772;DHT22;11047;47.904;8.110;2022-09-19T02:55:58;7.40;99.90
21772;DHT22;11047;47.904;8.110;2022-09-19T02:58:28;7.50;99.90
21772;DHT22;11047;47.904;8.110;2022-09-19T03:01:02;7.50;99.90
21772;DHT22;11047;47.904;8.110;2022-09-19T03:03:34;8.60;99.90
21772;DHT22;11047;47.904;8.110;2022-09-19T03:06:23;8.20;99.90
21772;DHT22;11047;47.904;8.110;2022-09-19T03:08:53;7.50;99.90
21772;DHT22;11047;47.904;8.110;2022-09-19T03:11:24;7.50;99.90
21772;DHT22;11047;47.904;8.110;2022-09-19T03:13:53;7.70;99.90
21772;DHT22;11047;47.904;8.110;2022-09-19T03:16:28;7.60;99.90
21772;DHT22;11047;47.904;8.110;2022-09-19T03:19:02;7.50;99.90
21772;DHT22;11047;47.904;8.110;2022-09-19T03:21:30;7.40;99.90
21772;DHT22;11047;47.904;8.110;2022-09-19T03:23:58;7.50;99.90
21772;DHT22;11047;47.904;8.110;2022-09-19T03:26:27;7.50;99.90
21772;DHT22;11047;47.904;8.110;2022-09-19T03:28:56;7.40;99.90
21772;DHT22;11047;47.904;8.110;2022-09-19T03:31:23;7.50;99.90
21772;DHT22;11047;47.904;8.110;2022-09-19T03:33:53;7.60;99.90
21772;DHT22;11047;47.904;8.110;2022-09-19T03:36:22;7.50;99.90
21772;DHT22;11047;47.904;8.110;2022-09-19T03:38:49;7.60;99.90
21772;DHT22;11047;47.904;8.110;2022-09-19T03:41:18;7.50;99.90
21772;DHT22;11047;47.904;8.110;2022-09-19T03:43:45;7.50;99.90
21772;DHT22;11047;47.904;8.110;2022-09-19T03:46:15;7.60;99.90
21772;DHT22;11047;47.904;8.110;2022-09-19T03:48:44;7.60;99.90
21772;DHT22;11047;47.904;8.110;2022-09-19T03:51:14;7.70;99.90
21772;DHT22;11047;47.904;8.110;2022-09-19T03:53:41;7.60;99.90
21772;DHT22;11047;47.904;8.110;2022-09-19T03:56:09;7.50;99.90
21772;DHT22;11047;47.904;8.110;2022-09-19T03:58:36;7.50;99.90
21772;DHT22;11047;47.904;8.110;2022-09-19T04:01:04;7.50;99.90
21772;DHT22;11047;47.904;8.110;2022-09-19T04:03:32;7.60;99.90
21772;DHT22;11047;47.904;8.110;2022-09-19T04:05:59;7.50;99.90
21772;DHT22;11047;47.904;8.110;2022-09-19T04:08:47;7.50;99.90
21772;DHT22;11047;47.904;8.110;2022-09-19T04:11:14;7.50;99.90
21772;DHT22;11047;47.904;8.110;2022-09-19T04:13:41;7.50;99.90
21772;DHT22;11047;47.904;8.110;2022-09-19T04:16:08;7.50;99.90
21772;DHT22;11047;47.904;8.110;2022-09-19T04:18:36;7.50;99.90
21772;DHT22;11047;47.904;8.110;2022-09-19T04:21:07;7.30;99.90
21772;DHT22;11047;47.904;8.110;2022-09-19T04:23:34;7.30;99.90
21772;DHT22;11047;47.904;8.110;2022-09-19T04:26:02;7.40;99.90
21772;DHT22;11047;47.904;8.110;2022-09-19T04:28:29;7.30;99.90
21772;DHT22;11047;47.904;8.110;2022-09-19T04:30:57;7.30;99.90
21772;DHT22;11047;47.904;8.110;2022-09-19T04:33:23;7.20;99.90
21772;DHT22;11047;47.904;8.110;2022-09-19T04:35:52;7.30;99.90
21772;DHT22;11047;47.904;8.110;2022-09-19T04:38:22;7.20;99.90
21772;DHT22;11047;47.904;8.110;2022-09-19T04:40:49;7.10;99.90
21772;DHT22;11047;47.904;8.110;2022-09-19T04:43:24;7.10;99.90
21772;DHT22;11047;47.904;8.110;2022-09-19T04:45:52;7.10;99.90
21772;DHT22;11047;47.904;8.110;2022-09-19T04:48:20;6.90;99.90
21772;DHT22;11047;47.904;8.110;2022-09-19T04:50:49;6.90;99.90
21772;DHT22;11047;47.904;8.110;2022-09-19T04:53:16;6.90;99.90
21772;DHT22;11047;47.904;8.110;2022-09-19T04:55:47;6.80;99.90
21772;DHT22;11047;47.904;8.110;2022-09-19T04:58:14;6.80;99.90
21772;DHT22;11047;47.904;8.110;2022-09-19T05:00:43;6.90;99.90
21772;DHT22;11047;47.904;8.110;2022-09-19T05:03:13;6.70;99.90
21772;DHT22;11047;47.904;8.110;2022-09-19T05:05:42;6.60;99.90
21772;DHT22;11047;47.904;8.110;2022-09-19T05:08:11;6.50;99.90
21772;DHT22;11047;47.904;8.110;2022-09-19T05:10:41;6.40;99.90
21772;DHT22;11047;47.904;8.110;2022-09-19T05:13:08;6.30;99.90
21772;DHT22;11047;47.904;8.110;2022-09-19T05:15:36;6.20;99.90
21772;DHT22;11047;47.904;8.110;2022-09-19T05:18:08;6.20;99.90
21772;DHT22;11047;47.904;8.110;2022-09-19T05:20:36;6.10;99.90
21772;DHT22;11047;47.904;8.110;2022-09-19T05:23:03;6.10;99.90
21772;DHT22;11047;47.904;8.110;2022-09-19T05:25:35;6.10;99.90
21772;DHT22;11047;47.904;8.110;2022-09-19T05:28:02;6.20;99.90
21772;DHT22;11047;47.904;8.110;2022-09-19T05:30:32;6.20;99.90
21772;DHT22;11047;47.904;8.110;2022-09-19T05:32:59;6.20;99.90
21772;DHT22;11047;47.904;8.110;2022-09-19T05:35:30;6.30;99.90
21772;DHT22;11047;47.904;8.110;2022-09-19T05:37:57;6.30;99.90
21772;DHT22;11047;47.904;8.110;2022-09-19T05:40:24;6.10;99.90
21772;DHT22;11047;47.904;8.110;2022-09-19T05:42:52;6.10;99.90
21772;DHT22;11047;47.904;8.110;2022-09-19T05:45:20;6.10;99.90
21772;DHT22;11047;47.904;8.110;2022-09-19T05:47:48;6.50;99.90
21772;DHT22;11047;47.904;8.110;2022-09-19T05:50:16;6.00;99.90
21772;DHT22;11047;47.904;8.110;2022-09-19T05:52:44;6.00;99.90
21772;DHT22;11047;47.904;8.110;2022-09-19T05:55:29;6.00;99.90
21772;DHT22;11047;47.904;8.110;2022-09-19T05:57:57;6.00;99.90
21772;DHT22;11047;47.904;8.110;2022-09-19T06:00:26;6.10;99.90
21772;DHT22;11047;47.904;8.110;2022-09-19T06:02:55;6.10;99.90
21772;DHT22;11047;47.904;8.110;2022-09-19T06:05:22;6.10;99.90
21772;DHT22;11047;47.904;8.110;2022-09-19T06:07:51;6.20;99.90
21772;DHT22;11047;47.904;8.110;2022-09-19T06:10:22;6.20;99.90
21772;DHT22;11047;47.904;8.110;2022-09-19T06:12:50;6.50;99.90
21772;DHT22;11047;47.904;8.110;2022-09-19T06:15:17;6.20;99.90
21772;DHT22;11047;47.904;8.110;2022-09-19T06:17:43;6.20;99.90
21772;DHT22;11047;47.904;8.110;2022-09-19T06:20:13;6.40;99.90
21772;DHT22;11047;47.904;8.110;2022-09-19T06:22:41;6.50;99.90
21772;DHT22;11047;47.904;8.110;2022-09-19T06:25:09;6.60;99.90
21772;DHT22;11047;47.904;8.110;2022-09-19T06:27:38;6.70;99.90
21772;DHT22;11047;47.904;8.110;2022-09-19T06:30:06;6.80;99.90
21772;DHT22;11047;47.904;8.110;2022-09-19T06:32:33;6.80;99.90
21772;DHT22;11047;47.904;8.110;2022-09-19T06:35:04;6.80;99.90
21772;DHT22;11047;47.904;8.110;2022-09-19T06:37:31;6.80;99.90
21772;DHT22;11047;47.904;8.110;2022-09-19T06:39:58;6.90;99.90
21772;DHT22;11047;47.904;8.110;2022-09-19T06:42:26;6.90;99.90
21772;DHT22;11047;47.904;8.110;2022-09-19T06:44:54;6.90;99.90
21772;DHT22;11047;47.904;8.110;2022-09-19T06:47:21;7.00;99.90
21772;DHT22;11047;47.904;8.110;2022-09-19T06:49:48;6.90;99.90
21772;DHT22;11047;47.904;8.110;2022-09-19T06:52:14;7.00;99.90
21772;DHT22;11047;47.904;8.110;2022-09-19T06:54:41;6.90;99.90
21772;DHT22;11047;47.904;8.110;2022-09-19T06:57:08;7.00;99.90
21772;DHT22;11047;47.904;8.110;2022-09-19T06:59:38;7.00;99.90
21772;DHT22;11047;47.904;8.110;2022-09-19T07:02:05;7.50;99.90
21772;DHT22;11047;47.904;8.110;2022-09-19T07:04:31;7.90;99.90
21772;DHT22;11047;47.904;8.110;2022-09-19T07:07:00;7.10;99.90
21772;DHT22;11047;47.904;8.110;2022-09-19T07:09:27;7.60;99.90
21772;DHT22;11047;47.904;8.110;2022-09-19T07:11:54;7.10;99.90
21772;DHT22;11047;47.904;8.110;2022-09-19T07:14:22;7.10;99.90
21772;DHT22;11047;47.904;8.110;2022-09-19T07:16:50;7.10;99.90
21772;DHT22;11047;47.904;8.110;2022-09-19T07:19:17;7.10;99.90
21772;DHT22;11047;47.904;8.110;2022-09-19T07:21:44;7.20;99.90
21772;DHT22;11047;47.904;8.110;2022-09-19T07:24:11;7.20;99.90
21772;DHT22;11047;47.904;8.110;2022-09-19T07:26:38;7.30;99.90
21772;DHT22;11047;47.904;8.110;2022-09-19T07:29:05;8.00;99.90
21772;DHT22;11047;47.904;8.110;2022-09-19T07:31:32;7.60;99.90
21772;DHT22;11047;47.904;8.110;2022-09-19T07:34:00;8.70;99.90
21772;DHT22;11047;47.904;8.110;2022-09-19T07:36:27;7.60;99.90
21772;DHT22;11047;47.904;8.110;2022-09-19T07:38:54;7.60;99.90
21772;DHT22;11047;47.904;8.110;2022-09-19T07:41:21;8.00;99.90
21772;DHT22;11047;47.904;8.110;2022-09-19T07:43:48;7.80;99.90
21772;DHT22;11047;47.904;8.110;2022-09-19T07:46:15;8.30;99.90
21772;DHT22;11047;47.904;8.110;2022-09-19T07:48:43;9.30;99.90
21772;DHT22;11047;47.904;8.110;2022-09-19T07:51:14;9.90;99.90
21772;DHT22;11047;47.904;8.110;2022-09-19T07:53:41;13.10;99.90
21772;DHT22;11047;47.904;8.110;2022-09-19T07:56:10;15.30;99.90
21772;DHT22;11047;47.904;8.110;2022-09-19T07:58:37;14.40;99.90
21772;DHT22;11047;47.904;8.110;2022-09-19T08:01:04;14.20;99.90
21772;DHT22;11047;47.904;8.110;2022-09-19T08:03:31;14.60;99.90
21772;DHT22;11047;47.904;8.110;2022-09-19T08:05:59;12.80;99.90
21772;DHT22;11047;47.904;8.110;2022-09-19T08:08:29;12.50;99.90
21772;DHT22;11047;47.904;8.110;2022-09-19T08:10:58;14.00;99.90
21772;DHT22;11047;47.904;8.110;2022-09-19T08:13:27;15.00;99.90
21772;DHT22;11047;47.904;8.110;2022-09-19T08:15:55;15.80;99.90
21772;DHT22;11047;47.904;8.110;2022-09-19T08:18:21;15.60;99.90
21772;DHT22;11047;47.904;8.110;2022-09-19T08:20:51;15.30;99.90
21772;DHT22;11047;47.904;8.110;2022-09-19T08:23:19;14.80;99.90
21772;DHT22;11047;47.904;8.110;2022-09-19T08:25:48;13.70;99.90
21772;DHT22;11047;47.904;8.110;2022-09-19T08:28:17;14.40;99.90
21772;DHT22;11047;47.904;8.110;2022-09-19T08:30:45;17.30;99.90
21772;DHT22;11047;47.904;8.110;2022-09-19T08:33:13;18.50;99.90
21772;DHT22;11047;47.904;8.110;2022-09-19T08:35:40;18.40;99.90
21772;DHT22;11047;47.904;8.110;2022-09-19T08:38:09;16.40;99.90
21772;DHT22;11047;47.904;8.110;2022-09-19T08:40:57;16.40;99.90
21772;DHT22;11047;47.904;8.110;2022-09-19T08:43:28;16.00;99.90
21772;DHT22;11047;47.904;8.110;2022-09-19T08:46:10;15.40;99.90
21772;DHT22;11047;47.904;8.110;2022-09-19T08:48:47;14.70;99.90
21772;DHT22;11047;47.904;8.110;2022-09-19T08:51:20;14.60;99.90
21772;DHT22;11047;47.904;8.110;2022-09-19T08:53:52;14.40;99.90
21772;DHT22;11047;47.904;8.110;2022-09-19T08:56:21;13.50;99.90
21772;DHT22;11047;47.904;8.110;2022-09-19T08:58:53;12.50;99.90
21772;DHT22;11047;47.904;8.110;2022-09-19T09:01:21;12.20;99.90
21772;DHT22;11047;47.904;8.110;2022-09-19T09:04:01;12.10;99.90
21772;DHT22;11047;47.904;8.110;2022-09-19T09:06:39;12.10;99.90
21772;DHT22;11047;47.904;8.110;2022-09-19T09:09:12;12.50;99.90
21772;DHT22;11047;47.904;8.110;2022-09-19T09:11:51;12.40;99.90
21772;DHT22;11047;47.904;8.110;2022-09-19T09:14:26;12.00;99.90
21772;DHT22;11047;47.904;8.110;2022-09-19T09:17:05;11.90;99.90
21772;DHT22;11047;47.904;8.110;2022-09-19T09:19:55;11.50;99.90
21772;DHT22;11047;47.904;8.110;2022-09-19T09:22:29;11.40;99.90
21772;DHT22;11047;47.904;8.110;2022-09-19T09:25:04;11.80;99.90
21772;DHT22;11047;47.904;8.110;2022-09-19T09:27:52;12.40;99.90
21772;DHT22;11047;47.904;8.110;2022-09-19T09:30:21;12.70;99.90
21772;DHT22;11047;47.904;8.110;2022-09-19T09:32:50;12.90;99.90
21772;DHT22;11047;47.904;8.110;2022-09-19T09:35:28;12.90;99.90
21772;DHT22;11047;47.904;8.110;2022-09-19T09:38:00;13.00;99.90
21772;DHT22;11047;47.904;8.110;2022-09-19T09:40:40;12.80;99.90
21772;DHT22;11047;47.904;8.110;2022-09-19T09:43:32;13.20;99.90
21772;DHT22;11047;47.904;8.110;2022-09-19T09:46:04;13.40;99.90
21772;DHT22;11047;47.904;8.110;2022-09-19T09:48:38;13.50;99.90
21772;DHT22;11047;47.904;8.110;2022-09-19T09:51:14;13.30;99.90
21772;DHT22;11047;47.904;8.110;2022-09-19T09:53:57;13.40;99.90
21772;DHT22;11047;47.904;8.110;2022-09-19T09:56:30;13.60;99.90
21772;DHT22;11047;47.904;8.110;2022-09-19T09:59:16;13.60;99.90
21772;DHT22;11047;47.904;8.110;2022-09-19T10:01:59;13.90;99.90
21772;DHT22;11047;47.904;8.110;2022-09-19T10:04:59;13.60;99.90
21772;DHT22;11047;47.904;8.110;2022-09-19T10:07:34;13.90;99.90
21772;DHT22;11047;47.904;8.110;2022-09-19T10:10:09;14.00;99.90
21772;DHT22;11047;47.904;8.110;2022-09-19T10:12:44;14.10;99.90
21772;DHT22;11047;47.904;8.110;2022-09-19T10:15:17;14.30;99.90
21772;DHT22;11047;47.904;8.110;2022-09-19T10:17:47;14.40;99.90
21772;DHT22;11047;47.904;8.110;2022-09-19T10:20:19;14.20;99.90
21772;DHT22;11047;47.904;8.110;2022-09-19T10:22:48;14.40;99.90
21772;DHT22;11047;47.904;8.110;2022-09-19T10:25:16;14.40;99.90
21772;DHT22;11047;47.904;8.110;2022-09-19T10:27:44;14.80;99.90
21772;DHT22;11047;47.904;8.110;2022-09-19T10:30:18;15.00;99.90
21772;DHT22;11047;47.904;8.110;2022-09-19T10:32:47;15.30;99.90
21772;DHT22;11047;47.904;8.110;2022-09-19T10:35:30;15.50;99.90
21772;DHT22;11047;47.904;8.110;2022-09-19T10:37:59;15.70;99.90
21772;DHT22;11047;47.904;8.110;2022-09-19T10:40:26;15.90;99.90
21772;DHT22;11047;47.904;8.110;2022-09-19T10:42:54;15.60;99.90
21772;DHT22;11047;47.904;8.110;2022-09-19T10:45:26;15.40;99.90
21772;DHT22;11047;47.904;8.110;2022-09-19T10:47:56;15.50;99.90
21772;DHT22;11047;47.904;8.110;2022-09-19T10:50:25;15.20;99.90
21772;DHT22;11047;47.904;8.110;2022-09-19T10:52:59;15.70;99.90
21772;DHT22;11047;47.904;8.110;2022-09-19T10:55:28;16.10;99.90
21772;DHT22;11047;47.904;8.110;2022-09-19T10:58:00;15.80;99.90
21772;DHT22;11047;47.904;8.110;2022-09-19T11:00:32;16.10;99.90
21772;DHT22;11047;47.904;8.110;2022-09-19T11:03:03;16.10;99.90
21772;DHT22;11047;47.904;8.110;2022-09-19T11:05:33;16.30;99.90
21772;DHT22;11047;47.904;8.110;2022-09-19T11:08:02;16.20;99.90
21772;DHT22;11047;47.904;8.110;2022-09-19T11:10:36;16.30;99.90
21772;DHT22;11047;47.904;8.110;2022-09-19T11:13:11;15.60;99.90
21772;DHT22;11047;47.904;8.110;2022-09-19T11:21:34;14.90;99.90
21772;DHT22;11047;47.904;8.110;2022-09-19T11:24:37;15.40;99.90
21772;DHT22;11047;47.904;8.110;2022-09-19T11:27:28;15.70;99.90
21772;DHT22;11047;47.904;8.110;2022-09-19T11:30:04;15.80;99.90
21772;DHT22;11047;47.904;8.110;2022-09-19T11:33:07;16.30;99.90
21772;DHT22;11047;47.904;8.110;2022-09-19T11:35:48;16.20;99.90
21772;DHT22;11047;47.904;8.110;2022-09-19T11:38:25;16.50;99.90
21772;DHT22;11047;47.904;8.110;2022-09-19T11:41:05;16.20;99.90
21772;DHT22;11047;47.904;8.110;2022-09-19T11:43:48;16.30;99.90
21772;DHT22;11047;47.904;8.110;2022-09-19T11:46:25;15.70;99.90
21772;DHT22;11047;47.904;8.110;2022-09-19T11:49:36;15.30;99.90
21772;DHT22;11047;47.904;8.110;2022-09-19T11:52:09;14.90;99.90
21772;DHT22;11047;47.904;8.110;2022-09-19T11:54:53;14.70;99.90
21772;DHT22;11047;47.904;8.110;2022-09-19T11:57:36;15.20;99.90
21772;DHT22;11047;47.904;8.110;2022-09-19T12:00:11;15.40;99.90
21772;DHT22;11047;47.904;8.110;2022-09-19T12:03:02;15.60;99.90
21772;DHT22;11047;47.904;8.110;2022-09-19T12:05:42;15.90;99.90
21772;DHT22;11047;47.904;8.110;2022-09-19T12:08:23;16.00;99.90
21772;DHT22;11047;47.904;8.110;2022-09-19T12:10:59;16.20;99.90
21772;DHT22;11047;47.904;8.110;2022-09-19T12:13:39;16.40;99.90
21772;DHT22;11047;47.904;8.110;2022-09-19T12:16:12;16.10;99.90
21772;DHT22;11047;47.904;8.110;2022-09-19T12:18:45;16.60;99.90
21772;DHT22;11047;47.904;8.110;2022-09-19T12:21:24;16.20;99.90
21772;DHT22;11047;47.904;8.110;2022-09-19T12:23:56;15.80;99.90
21772;DHT22;11047;47.904;8.110;2022-09-19T12:26:47;15.50;99.90
21772;DHT22;11047;47.904;8.110;2022-09-19T12:29:22;15.30;99.90
21772;DHT22;11047;47.904;8.110;2022-09-19T12:31:55;15.70;99.90
21772;DHT22;11047;47.904;8.110;2022-09-19T12:34:28;15.60;99.90
21772;DHT22;11047;47.904;8.110;2022-09-19T12:37:04;15.60;99.90
21772;DHT22;11047;47.904;8.110;2022-09-19T12:39:37;15.80;99.90
21772;DHT22;11047;47.904;8.110;2022-09-19T12:42:11;15.90;99.90
21772;DHT22;11047;47.904;8.110;2022-09-19T12:44:44;16.10;99.90
21772;DHT22;11047;47.904;8.110;2022-09-19T12:47:19;15.90;99.90
21772;DHT22;11047;47.904;8.110;2022-09-19T12:49:55;15.70;99.90
21772;DHT22;11047;47.904;8.110;2022-09-19T12:52:28;15.10;99.90
21772;DHT22;11047;47.904;8.110;2022-09-19T12:55:05;15.00;99.90
21772;DHT22;11047;47.904;8.110;2022-09-19T12:57:41;15.00;99.90
21772;DHT22;11047;47.904;8.110;2022-09-19T13:00:11;15.40;99.90
21772;DHT22;11047;47.904;8.110;2022-09-19T13:02:43;15.50;99.90
21772;DHT22;11047;47.904;8.110;2022-09-19T13:05:14;15.60;99.90
21772;DHT22;11047;47.904;8.110;2022-09-19T13:07:48;15.80;99.90
21772;DHT22;11047;47.904;8.110;2022-09-19T13:10:20;15.60;99.90
21772;DHT22;11047;47.904;8.110;2022-09-19T13:12:52;15.60;99.90
21772;DHT22;11047;47.904;8.110;2022-09-19T13:15:27;15.80;99.90
21772;DHT22;11047;47.904;8.110;2022-09-19T13:17:57;15.80;99.90
21772;DHT22;11047;47.904;8.110;2022-09-19T13:20:45;15.90;99.90
21772;DHT22;11047;47.904;8.110;2022-09-19T13:23:32;15.50;99.90
21772;DHT22;11047;47.904;8.110;2022-09-19T13:26:23;15.80;99.90
21772;DHT22;11047;47.904;8.110;2022-09-19T13:29:00;15.50;99.90
21772;DHT22;11047;47.904;8.110;2022-09-19T13:31:32;15.30;99.90
21772;DHT22;11047;47.904;8.110;2022-09-19T13:37:48;15.10;99.90
21772;DHT22;11047;47.904;8.110;2022-09-19T13:40:41;15.10;99.90
21772;DHT22;11047;47.904;8.110;2022-09-19T13:43:28;14.80;99.90
21772;DHT22;11047;47.904;8.110;2022-09-19T13:46:01;14.70;99.90
21772;DHT22;11047;47.904;8.110;2022-09-19T13:48:34;14.50;99.90
21772;DHT22;11047;47.904;8.110;2022-09-19T13:51:05;14.50;99.90
21772;DHT22;11047;47.904;8.110;2022-09-19T13:53:38;14.70;99.90
21772;DHT22;11047;47.904;8.110;2022-09-19T13:56:21;14.70;99.90
21772;DHT22;11047;47.904;8.110;2022-09-19T13:59:15;14.80;99.90
21772;DHT22;11047;47.904;8.110;2022-09-19T14:01:54;14.70;99.90
21772;DHT22;11047;47.904;8.110;2022-09-19T14:04:22;14.60;99.90
21772;DHT22;11047;47.904;8.110;2022-09-19T14:07:16;14.40;99.90
21772;DHT22;11047;47.904;8.110;2022-09-19T14:09:45;14.40;99.90
21772;DHT22;11047;47.904;8.110;2022-09-19T14:12:48;14.50;99.90
21772;DHT22;11047;47.904;8.110;2022-09-19T14:18:49;14.60;99.90
21772;DHT22;11047;47.904;8.110;2022-09-19T14:21:55;14.50;99.90
21772;DHT22;11047;47.904;8.110;2022-09-19T14:24:28;14.40;99.90
21772;DHT22;11047;47.904;8.110;2022-09-19T14:27:04;14.10;99.90
21772;DHT22;11047;47.904;8.110;2022-09-19T14:29:36;13.90;99.90
21772;DHT22;11047;47.904;8.110;2022-09-19T14:32:13;13.60;99.90
21772;DHT22;11047;47.904;8.110;2022-09-19T14:35:29;13.60;99.90
21772;DHT22;11047;47.904;8.110;2022-09-19T14:38:32;13.50;99.90
21772;DHT22;11047;47.904;8.110;2022-09-19T14:41:04;13.50;99.90
21772;DHT22;11047;47.904;8.110;2022-09-19T14:46:52;13.60;99.90
21772;DHT22;11047;47.904;8.110;2022-09-19T14:49:25;13.90;99.90
21772;DHT22;11047;47.904;8.110;2022-09-19T14:51:58;13.80;99.90
21772;DHT22;11047;47.904;8.110;2022-09-19T14:54:31;13.70;99.90
21772;DHT22;11047;47.904;8.110;2022-09-19T14:57:00;13.50;99.90
21772;DHT22;11047;47.904;8.110;2022-09-19T14:59:27;13.50;99.90
21772;DHT22;11047;47.904;8.110;2022-09-19T15:02:14;13.50;99.90
21772;DHT22;11047;47.904;8.110;2022-09-19T15:04:44;13.70;99.90
21772;DHT22;11047;47.904;8.110;2022-09-19T15:07:11;13.50;99.90
21772;DHT22;11047;47.904;8.110;2022-09-19T15:09:39;13.30;99.90
21772;DHT22;11047;47.904;8.110;2022-09-19T15:12:13;13.40;99.90
21772;DHT22;11047;47.904;8.110;2022-09-19T15:14:47;13.50;99.90
21772;DHT22;11047;47.904;8.110;2022-09-19T15:17:18;13.70;99.90
21772;DHT22;11047;47.904;8.110;2022-09-19T15:19:47;13.70;99.90
21772;DHT22;11047;47.904;8.110;2022-09-19T15:22:32;13.60;99.90
21772;DHT22;11047;47.904;8.110;2022-09-19T15:25:02;13.50;99.90
21772;DHT22;11047;47.904;8.110;2022-09-19T15:27:33;13.60;99.90
21772;DHT22;11047;47.904;8.110;2022-09-19T15:30:09;13.60;99.90
21772;DHT22;11047;47.904;8.110;2022-09-19T15:32:42;13.40;99.90
21772;DHT22;11047;47.904;8.110;2022-09-19T15:35:13;13.40;99.90
21772;DHT22;11047;47.904;8.110;2022-09-19T15:37:43;13.30;99.90
21772;DHT22;11047;47.904;8.110;2022-09-19T15:40:14;13.00;99.90
21772;DHT22;11047;47.904;8.110;2022-09-19T15:42:44;12.90;99.90
21772;DHT22;11047;47.904;8.110;2022-09-19T15:45:39;12.90;99.90
21772;DHT22;11047;47.904;8.110;2022-09-19T15:48:16;13.00;99.90
21772;DHT22;11047;47.904;8.110;2022-09-19T15:50:46;12.90;99.90
21772;DHT22;11047;47.904;8.110;2022-09-19T15:53:20;12.60;99.90
21772;DHT22;11047;47.904;8.110;2022-09-19T15:56:04;12.50;99.90
21772;DHT22;11047;47.904;8.110;2022-09-19T15:58:34;12.40;99.90
21772;DHT22;11047;47.904;8.110;2022-09-19T16:01:16;12.40;99.90
21772;DHT22;11047;47.904;8.110;2022-09-19T16:03:50;12.40;99.90
21772;DHT22;11047;47.904;8.110;2022-09-19T16:06:24;12.30;99.90
21772;DHT22;11047;47.904;8.110;2022-09-19T16:09:10;12.20;99.90
21772;DHT22;11047;47.904;8.110;2022-09-19T16:11:41;12.30;99.90
21772;DHT22;11047;47.904;8.110;2022-09-19T16:14:16;12.20;99.90
21772;DHT22;11047;47.904;8.110;2022-09-19T16:16:43;12.00;99.90
21772;DHT22;11047;47.904;8.110;2022-09-19T16:19:40;11.90;99.90
21772;DHT22;11047;47.904;8.110;2022-09-19T16:22:10;11.80;99.90
21772;DHT22;11047;47.904;8.110;2022-09-19T16:24:43;11.70;99.90
21772;DHT22;11047;47.904;8.110;2022-09-19T16:27:11;11.50;99.90
21772;DHT22;11047;47.904;8.110;2022-09-19T16:29:42;11.50;99.90
21772;DHT22;11047;47.904;8.110;2022-09-19T16:32:14;11.30;99.90